Time,TemperatureF,DewpointF,PressureIn,WindDirection,WindDirectionDegrees,WindSpeedMPH,WindSpeedGustMPH,Humidity,HourlyPrecipIn,Conditions,Clouds,dailyrainin,SoftwareType,DateUTC
2013-06-10 00:14:00,61.0,25.0,31.55,WNW,301,18.0,33.0,25,0.00,,,0.00,weatherlink.com 1.10,2013-06-10 06:14:00,
2013-06-10 00:29:00,60.7,26.0,31.55,WNW,288,11.0,30.0,27,0.00,,,0.00,weatherlink.com 1.10,2013-06-10 06:29:00,
2013-06-10 00:44:00,60.1,28.0,31.56,NW,317,25.0,25.0,29,0.00,,,0.00,weatherlink.com 1.10,2013-06-10 06:44:00,
2013-06-10 00:59:00,60.0,27.0,31.55,NW,318,21.0,31.0,28,0.00,,,0.00,weatherlink.com 1.10,2013-06-10 06:59:00,
2013-06-10 01:14:00,60.0,27.0,31.56,WNW,296,21.0,24.0,28,0.00,,,0.00,weatherlink.com 1.10,2013-06-10 07:14:00,
2013-06-10 01:29:00,59.6,27.0,31.57,WNW,302,15.0,23.0,29,0.00,,,0.00,weatherlink.com 1.10,2013-06-10 07:29:00,
2013-06-10 01:44:00,59.0,27.0,31.57,West,279,15.0,24.0,30,0.00,,,0.00,weatherlink.com 1.10,2013-06-10 07:44:00,
2013-06-10 01:59:00,58.6,28.0,31.57,NNW,332,11.0,22.0,31,0.00,,,0.00,weatherlink.com 1.10,2013-06-10 07:59:00,
2013-06-10 02:14:00,57.8,29.0,31.57,NNW,328,14.0,19.0,33,0.00,,,0.00,weatherlink.com 1.10,2013-06-10 08:14:00,
2013-06-10 02:29:00,57.6,29.0,31.57,NNW,336,14.0,20.0,33,0.00,,,0.00,weatherlink.com 1.10,2013-06-10 08:29:00,
2013-06-10 02:44:00,57.7,27.0,31.58,NNW,328,15.0,24.0,31,0.00,,,0.00,weatherlink.com 1.10,2013-06-10 08:44:00,
2013-06-10 02:59:00,57.3,26.0,31.58,North,355,12.0,19.0,30,0.00,,,0.00,weatherlink.com 1.10,2013-06-10 08:59:00,
2013-06-10 03:14:00,56.9,26.0,31.59,NW,317,16.0,20.0,31,0.00,,,0.00,weatherlink.com 1.10,2013-06-10 09:14:00,
2013-06-10 03:29:00,56.3,26.0,31.59,NNW,340,14.0,18.0,31,0.00,,,0.00,weatherlink.com 1.10,2013-06-10 09:29:00,
2013-06-10 03:44:00,56.1,26.0,31.59,NNW,327,17.0,20.0,32,0.00,,,0.00,weatherlink.com 1.10,2013-06-10 09:44:00,
2013-06-10 03:59:00,55.3,28.0,31.59,NW,319,19.0,21.0,35,0.00,,,0.00,weatherlink.com 1.10,2013-06-10 09:59:00,
2013-06-10 04:14:00,54.8,29.0,31.59,NW,322,16.0,21.0,37,0.00,,,0.00,weatherlink.com 1.10,2013-06-10 10:14:00,
2013-06-10 04:29:00,54.6,29.0,31.59,NW,321,19.0,23.0,37,0.00,,,0.00,weatherlink.com 1.10,2013-06-10 10:29:00,
2013-06-10 04:44:00,54.4,28.0,31.59,NW,321,12.0,21.0,37,0.00,,,0.00,weatherlink.com 1.10,2013-06-10 10:44:00,
2013-06-10 04:59:00,54.1,29.0,31.59,NNW,343,16.0,21.0,38,0.00,,,0.00,weatherlink.com 1.10,2013-06-10 10:59:00,
2013-06-10 05:14:00,53.9,29.0,31.59,NNW,333,16.0,22.0,38,0.00,,,0.00,weatherlink.com 1.10,2013-06-10 11:14:00,
2013-06-10 05:29:00,53.7,28.0,31.60,NNW,338,17.0,21.0,38,0.00,,,0.00,weatherlink.com 1.10,2013-06-10 11:29:00,
2013-06-10 05:44:00,53.6,28.0,31.60,North,350,17.0,20.0,38,0.00,,,0.00,weatherlink.com 1.10,2013-06-10 11:44:00,
2013-06-10 05:59:00,53.3,28.0,31.61,NW,321,9.0,20.0,38,0.00,,,0.00,weatherlink.com 1.10,2013-06-10 11:59:00,
2013-06-10 06:14:00,53.1,29.0,31.62,WNW,287,10.0,18.0,39,0.00,,,0.00,weatherlink.com 1.10,2013-06-10 12:14:00,
2013-06-10 06:29:00,52.4,30.0,31.62,NW,325,14.0,20.0,42,0.00,,,0.00,weatherlink.com 1.10,2013-06-10 12:29:00,
2013-06-10 06:44:00,52.6,29.0,31.63,WNW,298,15.0,20.0,41,0.00,,,0.00,weatherlink.com 1.10,2013-06-10 12:44:00,
2013-06-10 06:59:00,52.6,29.0,31.64,WNW,284,12.0,18.0,41,0.00,,,0.00,weatherlink.com 1.10,2013-06-10 12:59:00,
2013-06-10 07:15:00,52.4,30.0,31.62,NNW,344,11.0,18.0,42,0.00,,,0.00,weatherlink.com 1.10,2013-06-10 13:15:00,
2013-06-10 07:30:00,52.4,30.0,31.62,NNW,330,7.0,17.0,42,0.00,,,0.00,weatherlink.com 1.10,2013-06-10 13:30:00,
2013-06-10 07:45:00,52.9,28.0,31.61,NW,308,13.0,16.0,39,0.00,,,0.00,weatherlink.com 1.10,2013-06-10 13:45:00,
2013-06-10 08:00:00,54.1,26.0,31.61,NW,309,5.0,13.0,34,0.00,,,0.00,weatherlink.com 1.10,2013-06-10 14:00:00,
2013-06-10 08:15:00,54.6,26.0,31.61,NNW,327,8.0,14.0,33,0.00,,,0.00,weatherlink.com 1.10,2013-06-10 14:15:00,
2013-06-10 08:30:00,54.9,26.0,31.61,WNW,296,6.0,13.0,33,0.00,,,0.00,weatherlink.com 1.10,2013-06-10 14:30:00,
2013-06-10 08:45:00,55.3,26.0,31.61,WNW,289,4.0,12.0,33,0.00,,,0.00,weatherlink.com 1.10,2013-06-10 14:45:00,
2013-06-10 09:00:00,55.6,27.0,31.60,NNW,328,8.0,12.0,33,0.00,,,0.00,weatherlink.com 1.10,2013-06-10 15:00:00,
2013-06-10 09:15:00,56.3,28.0,31.60,West,275,5.0,10.0,34,0.00,,,0.00,weatherlink.com 1.10,2013-06-10 15:15:00,
2013-06-10 09:30:00,56.7,26.0,31.59,West,281,6.0,9.0,31,0.00,,,0.00,weatherlink.com 1.10,2013-06-10 15:30:00,
2013-06-10 09:45:00,56.9,29.0,31.59,WSW,249,7.0,8.0,34,0.00,,,0.00,weatherlink.com 1.10,2013-06-10 15:45:00,
2013-06-10 10:00:00,57.1,31.0,31.58,West,268,6.0,11.0,38,0.00,,,0.00,weatherlink.com 1.10,2013-06-10 16:00:00,
2013-06-10 10:15:00,57.7,32.0,31.58,West,280,6.0,10.0,38,0.00,,,0.00,weatherlink.com 1.10,2013-06-10 16:15:00,
2013-06-10 10:30:00,57.4,33.0,31.58,West,267,13.0,15.0,40,0.00,,,0.00,weatherlink.com 1.10,2013-06-10 16:30:00,
2013-06-10 10:45:00,58.0,29.0,31.57,West,259,6.0,16.0,33,0.00,,,0.00,weatherlink.com 1.10,2013-06-10 16:45:00,
2013-06-10 11:00:00,58.6,29.0,31.57,West,270,7.0,10.0,32,0.00,,,0.00,weatherlink.com 1.10,2013-06-10 17:00:00,
2013-06-10 11:15:00,59.1,30.0,31.57,WSW,248,6.0,12.0,33,0.00,,,0.00,weatherlink.com 1.10,2013-06-10 17:15:00,
2013-06-10 11:31:00,59.1,30.0,31.56,West,281,6.0,11.0,33,0.00,,,0.00,weatherlink.com 1.10,2013-06-10 17:31:00,
2013-06-10 11:46:00,60.0,31.0,31.56,West,259,11.0,12.0,34,0.00,,,0.00,weatherlink.com 1.10,2013-06-10 17:46:00,
2013-06-10 12:01:00,60.5,30.0,31.55,West,264,4.0,10.0,31,0.00,,,0.00,weatherlink.com 1.10,2013-06-10 18:01:00,
2013-06-10 12:16:00,62.2,31.0,31.54,WSW,242,8.0,10.0,31,0.00,,,0.00,weatherlink.com 1.10,2013-06-10 18:16:00,
2013-06-10 12:46:00,63.7,30.0,31.53,WNW,300,5.0,9.0,28,0.00,,,0.00,weatherlink.com 1.10,2013-06-10 18:46:00,
2013-06-10 13:01:00,65.6,23.0,31.53,SSE,152,2.0,13.0,20,0.00,,,0.00,weatherlink.com 1.10,2013-06-10 19:01:00,
2013-06-10 13:16:00,66.3,28.0,31.52,SW,216,3.0,6.0,24,0.00,,,0.00,weatherlink.com 1.10,2013-06-10 19:16:00,
2013-06-10 13:46:00,65.6,26.0,31.50,West,269,6.0,10.0,22,0.00,,,0.00,weatherlink.com 1.10,2013-06-10 19:46:00,
2013-06-10 14:01:00,66.5,27.0,31.50,West,259,7.0,11.0,23,0.00,,,0.00,weatherlink.com 1.10,2013-06-10 20:01:00,
2013-06-10 14:16:00,67.4,26.0,31.49,NW,317,5.0,14.0,21,0.00,,,0.00,weatherlink.com 1.10,2013-06-10 20:16:00,
2013-06-10 14:31:00,66.4,32.0,31.48,WNW,286,4.0,14.0,28,0.00,,,0.00,weatherlink.com 1.10,2013-06-10 20:31:00,
2013-06-10 14:46:00,66.8,30.0,31.48,WNW,287,3.0,17.0,25,0.00,,,0.00,weatherlink.com 1.10,2013-06-10 20:46:00,
2013-06-10 15:01:00,67.2,28.0,31.47,West,273,8.0,13.0,23,0.00,,,0.00,weatherlink.com 1.10,2013-06-10 21:01:00,
2013-06-10 15:16:00,68.4,30.0,31.46,West,262,7.0,11.0,24,0.00,,,0.00,weatherlink.com 1.10,2013-06-10 21:16:00,
2013-06-10 15:31:00,68.0,28.0,31.46,WNW,296,6.0,14.0,22,0.00,,,0.00,weatherlink.com 1.10,2013-06-10 21:31:00,
2013-06-10 15:46:00,69.0,31.0,31.45,WSW,239,5.0,17.0,24,0.00,,,0.00,weatherlink.com 1.10,2013-06-10 21:46:00,
2013-06-10 16:01:00,69.1,29.0,31.44,NW,311,13.0,22.0,22,0.00,,,0.00,weatherlink.com 1.10,2013-06-10 22:01:00,
2013-06-10 16:31:00,70.2,27.0,31.43,WNW,298,15.0,20.0,20,0.00,,,0.00,weatherlink.com 1.10,2013-06-10 22:31:00,
2013-06-10 16:47:00,70.4,29.0,31.43,WNW,300,17.0,19.0,21,0.00,,,0.00,weatherlink.com 1.10,2013-06-10 22:47:00,
2013-06-10 17:02:00,70.2,27.0,31.43,WNW,298,20.0,21.0,20,0.00,,,0.00,weatherlink.com 1.10,2013-06-10 23:02:00,
2013-06-10 17:17:00,70.3,26.0,31.42,WNW,292,12.0,22.0,19,0.00,,,0.00,weatherlink.com 1.10,2013-06-10 23:17:00,
2013-06-10 17:32:00,70.6,26.0,31.41,West,278,15.0,22.0,19,0.00,,,0.00,weatherlink.com 1.10,2013-06-10 23:32:00,
2013-06-10 17:47:00,71.8,26.0,31.41,NW,304,13.0,19.0,18,0.00,,,0.00,weatherlink.com 1.10,2013-06-10 23:47:00,
2013-06-10 18:02:00,71.7,27.0,31.40,WNW,290,10.0,22.0,19,0.00,,,0.00,weatherlink.com 1.10,2013-06-11 00:02:00,
2013-06-10 18:17:00,71.5,27.0,31.40,NNW,337,10.0,18.0,19,0.00,,,0.00,weatherlink.com 1.10,2013-06-11 00:17:00,
2013-06-10 18:32:00,71.6,30.0,31.39,NW,322,13.0,19.0,21,0.00,,,0.00,weatherlink.com 1.10,2013-06-11 00:32:00,
2013-06-10 18:47:00,71.2,28.0,31.39,WNW,286,13.0,18.0,20,0.00,,,0.00,weatherlink.com 1.10,2013-06-11 00:47:00,
2013-06-10 19:02:00,71.6,30.0,31.39,NW,323,10.0,16.0,21,0.00,,,0.00,weatherlink.com 1.10,2013-06-11 01:02:00,
2013-06-10 19:17:00,71.8,30.0,31.39,NNW,327,7.0,15.0,21,0.00,,,0.00,weatherlink.com 1.10,2013-06-11 01:17:00,
2013-06-10 19:32:00,71.2,29.0,31.39,North,355,9.0,18.0,21,0.00,,,0.00,weatherlink.com 1.10,2013-06-11 01:32:00,
2013-06-10 19:47:00,70.8,29.0,31.39,NW,325,10.0,19.0,21,0.00,,,0.00,weatherlink.com 1.10,2013-06-11 01:47:00,
2013-06-10 20:02:00,-999.0,-99.9,31.40,North,-999,-999.0,-999.0,-999,0.00,,,0.00,weatherlink.com 1.10,2013-06-11 02:02:00,
2013-06-10 20:17:00,69.8,30.0,31.40,NNW,348,16.0,17.0,23,0.00,,,0.00,weatherlink.com 1.10,2013-06-11 02:17:00,
2013-06-10 20:32:00,69.1,30.0,31.41,NNW,335,16.0,18.0,23,0.00,,,0.00,weatherlink.com 1.10,2013-06-11 02:32:00,
2013-06-10 20:47:00,68.5,28.0,31.41,NNW,328,15.0,18.0,22,0.00,,,0.00,weatherlink.com 1.10,2013-06-11 02:47:00,
2013-06-10 21:02:00,67.6,28.0,31.41,North,355,11.0,16.0,23,0.00,,,0.00,weatherlink.com 1.10,2013-06-11 03:02:00,
2013-06-10 21:17:00,66.9,28.0,31.41,North,355,12.0,17.0,23,0.00,,,0.00,weatherlink.com 1.10,2013-06-11 03:17:00,
2013-06-10 21:32:00,66.3,26.0,31.42,NNW,343,11.0,16.0,22,0.00,,,0.00,weatherlink.com 1.10,2013-06-11 03:32:00,
2013-06-10 21:47:00,66.3,26.0,31.43,North,355,10.0,14.0,22,0.00,,,0.00,weatherlink.com 1.10,2013-06-11 03:47:00,
2013-06-10 22:02:00,66.2,26.0,31.44,NNW,345,11.0,14.0,22,0.00,,,0.00,weatherlink.com 1.10,2013-06-11 04:02:00,
2013-06-10 22:17:00,66.2,25.0,31.44,North,355,10.0,14.0,21,0.00,,,0.00,weatherlink.com 1.10,2013-06-11 04:17:00,
2013-06-10 22:32:00,65.9,26.0,31.45,North,355,10.0,14.0,22,0.00,,,0.00,weatherlink.com 1.10,2013-06-11 04:32:00,
2013-06-10 22:47:00,65.6,27.0,31.46,NNW,348,10.0,11.0,23,0.00,,,0.00,weatherlink.com 1.10,2013-06-11 04:47:00,
2013-06-10 23:02:00,65.4,27.0,31.47,NNW,337,8.0,11.0,23,0.00,,,0.00,weatherlink.com 1.10,2013-06-11 05:02:00,
2013-06-10 23:17:00,65.0,27.0,31.47,NW,323,11.0,11.0,24,0.00,,,0.00,weatherlink.com 1.10,2013-06-11 05:17:00,
2013-06-10 23:32:00,64.3,28.0,31.47,NNW,342,13.0,14.0,25,0.00,,,0.00,weatherlink.com 1.10,2013-06-11 05:32:00,
2013-06-10 23:47:00,65.7,26.0,31.48,North,360,10.0,13.0,22,0.00,,,0.00,weatherlink.com 1.10,2013-06-11 05:47:00,